Time;durP1;ratioP1;P1;durP2;ratioP2;P2;SDS_P1;SDS_P2;PMS_P1;PMS_P2;Temp;Humidity;BMP_temperature;BMP_pressure;BME280_temperature;BME280_humidity;BME280_pressure;Samples;Min_cycle;Max_cycle;Signal;HPM_P1;HPM_P2
2022/08/12 00:44:39;;;;;;;4.70;1.90;;;;;;;;;;5018318;28;20223;-15
2022/08/12 00:47:06;;;;;;;1.90;1.40;;;;;;;;;;5034366;28;20235;-15
2022/08/12 00:49:51;;;;;;;2.63;1.80;;;;;;;;;;5031285;28;20227;-15
2022/08/12 00:52:19;;;;;;;1.83;1.70;;;;;;;;;;5030987;28;20241;-15
2022/08/12 00:54:47;;;;;;;3.05;1.63;;;;;;;;;;5023876;28;20240;-15
2022/08/12 00:57:15;;;;;;;1.95;1.67;;;;;;;;;;5038650;28;20881;-15
2022/08/12 00:59:43;;;;;;;3.75;1.95;;;;;;;;;;5035691;28;20241;-15
2022/08/12 01:02:11;;;;;;;2.13;1.90;;;;;;;;;;5032113;28;20242;-15
2022/08/12 01:12:59;;;;;;;3.15;2.17;;;;;;;;;;5033363;28;20234;-15
2022/08/12 01:15:46;;;;;;;4.00;1.80;;;;;;;;;;5027390;28;20230;-15
2022/08/12 01:18:13;;;;;;;1.88;1.60;;;;;;;;;;5034332;28;20235;-15
2022/08/12 01:20:43;;;;;;;2.47;1.90;;;;;;;;;;5030860;28;20709;-15
2022/08/12 01:23:34;;;;;;;2.78;2.03;;;;;;;;;;5030531;28;20292;-15
2022/08/12 01:26:03;;;;;;;3.88;2.20;;;;;;;;;;5030568;28;20223;-15
2022/08/12 01:28:31;;;;;;;2.38;1.80;;;;;;;;;;5030856;28;20242;-15
2022/08/12 01:30:58;;;;;;;2.38;1.73;;;;;;;;;;5030994;28;20702;-15
2022/08/12 01:33:26;;;;;;;5.35;1.90;;;;;;;;;;5031046;28;20738;-15
2022/08/12 01:35:54;;;;;;;2.97;1.70;;;;;;;;;;5030439;28;20691;-15
2022/08/12 01:38:34;;;;;;;1.90;1.38;;;;;;;;;;5030553;28;20293;-15
2022/08/12 01:41:03;;;;;;;3.25;1.75;;;;;;;;;;5031037;28;20226;-15
2022/08/12 01:43:31;;;;;;;2.83;1.63;;;;;;;;;;5044394;28;20306;-15
2022/08/12 01:46:03;;;;;;;3.08;1.92;;;;;;;;;;5042986;28;21003;-15
2022/08/12 01:48:34;;;;;;;1.88;1.50;;;;;;;;;;5030021;28;20235;-15
2022/08/12 01:51:03;;;;;;;2.17;1.77;;;;;;;;;;5030588;28;20234;-15
2022/08/12 01:53:46;;;;;;;2.38;2.15;;;;;;;;;;5030416;28;20241;-15
2022/08/12 01:56:18;;;;;;;2.20;1.83;;;;;;;;;;5030617;28;20245;-15
2022/08/12 02:01:34;;;;;;;3.70;1.90;;;;;;;;;;5029531;28;20978;-15
2022/08/12 02:13:00;;;;;;;3.10;1.90;;;;;;;;;;5033872;28;20242;-15
2022/08/12 02:15:31;;;;;;;3.30;1.83;;;;;;;;;;5036972;28;20273;-15
2022/08/12 02:18:03;;;;;;;3.08;2.35;;;;;;;;;;5053792;28;20238;-15
2022/08/12 02:23:03;;;;;;;2.35;2.15;;;;;;;;;;5037959;28;20250;-16
2022/08/12 02:25:32;;;;;;;2.65;1.80;;;;;;;;;;5038840;28;20230;-16
2022/08/12 02:28:00;;;;;;;3.60;1.88;;;;;;;;;;5053232;28;20248;-16
2022/08/12 02:30:35;;;;;;;2.33;2.08;;;;;;;;;;5048816;28;21126;-16
2022/08/12 02:33:08;;;;;;;3.08;1.98;;;;;;;;;;5053147;28;21079;-16
2022/08/12 02:35:38;;;;;;;2.60;1.98;;;;;;;;;;5053463;28;20222;-16
2022/08/12 02:38:06;;;;;;;3.63;2.30;;;;;;;;;;5053135;28;20240;-16
2022/08/12 02:40:34;;;;;;;2.70;2.20;;;;;;;;;;5040252;28;20230;-16
2022/08/12 02:43:05;;;;;;;3.67;1.85;;;;;;;;;;5052717;28;20230;-16
2022/08/12 02:45:36;;;;;;;2.05;1.83;;;;;;;;;;5053490;28;20234;-16
2022/08/12 02:48:06;;;;;;;2.97;1.67;;;;;;;;;;5053385;28;20256;-16
2022/08/12 02:50:33;;;;;;;2.17;1.98;;;;;;;;;;5053859;28;20234;-16
2022/08/12 02:53:01;;;;;;;3.45;2.20;;;;;;;;;;5052675;28;20245;-16
2022/08/12 02:55:29;;;;;;;2.70;2.15;;;;;;;;;;5051094;28;20229;-16
2022/08/12 02:58:04;;;;;;;4.38;2.50;;;;;;;;;;5042929;28;21013;-17
2022/08/12 03:00:35;;;;;;;3.10;2.00;;;;;;;;;;5052676;28;20242;-16
2022/08/12 03:03:04;;;;;;;3.00;2.05;;;;;;;;;;5052768;28;20261;-16
2022/08/12 03:05:32;;;;;;;2.83;2.00;;;;;;;;;;5064998;28;20704;-16
2022/08/12 03:08:12;;;;;;;2.63;2.17;;;;;;;;;;5052389;28;20233;-16
2022/08/12 03:10:59;;;;;;;4.50;2.08;;;;;;;;;;5052448;28;20230;-16
2022/08/12 03:13:29;;;;;;;2.47;2.28;;;;;;;;;;5052609;28;20273;-16
2022/08/12 03:15:57;;;;;;;4.80;2.55;;;;;;;;;;5051984;28;20230;-16
2022/08/12 03:18:27;;;;;;;3.22;2.10;;;;;;;;;;5052753;28;20234;-16
2022/08/12 03:20:55;;;;;;;2.00;1.80;;;;;;;;;;5051821;28;20241;-16
2022/08/12 03:23:22;;;;;;;4.05;2.30;;;;;;;;;;5052626;28;20227;-16
2022/08/12 03:25:57;;;;;;;3.22;2.08;;;;;;;;;;5052014;28;20436;-16
2022/08/12 03:31:11;;;;;;;4.22;1.98;;;;;;;;;;5042712;28;20226;-16
2022/08/12 03:33:38;;;;;;;5.10;2.00;;;;;;;;;;5052511;28;20894;-16
2022/08/12 03:36:06;;;;;;;2.50;2.30;;;;;;;;;;5052330;28;20233;-17
2022/08/12 03:38:36;;;;;;;2.90;2.50;;;;;;;;;;5052503;28;20237;-16
2022/08/12 04:00:23;;;;;;;4.00;2.00;;;;;;;;;;5051525;28;20244;-16
2022/08/12 04:02:59;;;;;;;2.55;2.35;;;;;;;;;;5052008;28;20236;-16
2022/08/12 04:05:27;;;;;;;2.20;2.00;;;;;;;;;;5051997;28;20230;-16
2022/08/12 04:08:14;;;;;;;5.10;2.28;;;;;;;;;;5051817;28;20700;-16
2022/08/12 04:13:24;;;;;;;3.90;2.10;;;;;;;;;;5051083;28;20230;-17
2022/08/12 04:15:51;;;;;;;5.80;2.10;;;;;;;;;;5051363;28;20234;-17
2022/08/12 04:18:20;;;;;;;2.20;2.00;;;;;;;;;;5052131;28;20230;-16
2022/08/12 04:20:48;;;;;;;3.72;2.10;;;;;;;;;;5050843;28;20229;-17
2022/08/12 04:23:16;;;;;;;2.22;2.03;;;;;;;;;;5050452;28;20238;-16
2022/08/12 04:25:43;;;;;;;2.55;2.20;;;;;;;;;;5051428;28;20732;-17
2022/08/12 04:28:11;;;;;;;3.03;2.00;;;;;;;;;;5051680;28;20708;-16
2022/08/12 04:30:40;;;;;;;2.28;2.08;;;;;;;;;;5051413;28;20238;-16
2022/08/12 04:33:08;;;;;;;2.22;2.03;;;;;;;;;;5051001;28;20234;-16
2022/08/12 04:35:37;;;;;;;2.97;2.25;;;;;;;;;;5051226;28;20241;-16
2022/08/12 04:38:05;;;;;;;2.05;1.85;;;;;;;;;;5051278;28;20693;-16
2022/08/12 04:40:32;;;;;;;2.33;1.95;;;;;;;;;;5051235;28;20222;-16
2022/08/12 04:43:00;;;;;;;3.88;2.13;;;;;;;;;;5051037;28;21000;-16
2022/08/12 04:45:28;;;;;;;2.03;1.80;;;;;;;;;;5051537;28;20278;-17
2022/08/12 04:47:55;;;;;;;1.75;1.65;;;;;;;;;;5051451;28;20288;-16
2022/08/12 04:50:23;;;;;;;2.40;2.20;;;;;;;;;;5050937;28;20237;-16
2022/08/12 04:53:04;;;;;;;4.30;2.22;;;;;;;;;;5051314;28;20653;-17
2022/08/12 04:55:32;;;;;;;2.65;2.15;;;;;;;;;;5051318;28;20797;-16
2022/08/12 04:57:59;;;;;;;2.10;1.90;;;;;;;;;;5051020;28;20696;-16
2022/08/12 05:00:27;;;;;;;2.80;2.50;;;;;;;;;;5051080;28;20713;-16
2022/08/12 05:02:55;;;;;;;2.42;2.22;;;;;;;;;;5050720;28;20234;-16
2022/08/12 05:05:22;;;;;;;2.88;2.35;;;;;;;;;;5050947;28;20277;-17
2022/08/12 05:07:50;;;;;;;3.42;2.85;;;;;;;;;;5050853;28;20233;-17
2022/08/12 05:10:22;;;;;;;3.35;2.38;;;;;;;;;;5050782;28;20233;-16
2022/08/12 05:13:02;;;;;;;2.30;2.10;;;;;;;;;;5050623;28;20226;-16
2022/08/12 05:15:29;;;;;;;3.03;2.25;;;;;;;;;;5050467;28;21303;-17
2022/08/12 05:17:57;;;;;;;2.40;2.20;;;;;;;;;;5050719;28;20230;-16
2022/08/12 05:20:28;;;;;;;2.42;2.22;;;;;;;;;;5051029;28;20258;-17
2022/08/12 05:23:05;;;;;;;3.42;2.03;;;;;;;;;;5050602;28;20253;-16
2022/08/12 05:25:41;;;;;;;2.38;2.17;;;;;;;;;;5050726;28;20292;-16
2022/08/12 05:28:09;;;;;;;4.25;2.42;;;;;;;;;;5050087;28;20261;-17
2022/08/12 05:30:36;;;;;;;3.13;2.20;;;;;;;;;;5050570;28;20234;-17
2022/08/12 05:33:04;;;;;;;3.53;2.20;;;;;;;;;;5050108;28;20231;-16
2022/08/12 05:35:38;;;;;;;2.50;2.30;;;;;;;;;;5050430;28;20242;-16
2022/08/12 05:40:52;;;;;;;4.82;2.33;;;;;;;;;;5050455;28;20226;-16
2022/08/12 05:43:19;;;;;;;3.80;2.47;;;;;;;;;;5050367;28;20234;-17
2022/08/12 05:45:48;;;;;;;2.30;2.00;;;;;;;;;;5046502;28;20234;-17
2022/08/12 05:48:15;;;;;;;3.70;2.63;;;;;;;;;;5050725;28;20245;-16
2022/08/12 05:50:44;;;;;;;2.55;2.33;;;;;;;;;;5050204;28;20702;-16
2022/08/12 05:53:12;;;;;;;2.53;2.30;;;;;;;;;;5050315;28;20229;-16
2022/08/12 05:55:40;;;;;;;3.40;2.25;;;;;;;;;;5050509;28;21080;-17
2022/08/12 05:58:08;;;;;;;3.08;2.20;;;;;;;;;;5050228;28;20222;-16
2022/08/12 06:00:36;;;;;;;3.42;2.20;;;;;;;;;;5050655;28;20233;-16
2022/08/12 06:03:04;;;;;;;2.72;2.05;;;;;;;;;;5050336;28;20720;-16
2022/08/12 06:05:34;;;;;;;2.45;2.25;;;;;;;;;;5050266;28;20234;-17
2022/08/12 06:08:21;;;;;;;2.83;2.58;;;;;;;;;;5050365;28;20276;-16
2022/08/12 06:10:49;;;;;;;3.65;2.35;;;;;;;;;;5050474;28;21010;-16
2022/08/12 06:13:18;;;;;;;2.90;2.15;;;;;;;;;;5050429;28;20261;-16
2022/08/12 06:16:06;;;;;;;3.38;2.42;;;;;;;;;;5050070;28;20237;-16
2022/08/12 06:18:33;;;;;;;2.30;2.10;;;;;;;;;;5050383;28;20234;-16
2022/08/12 06:21:01;;;;;;;3.22;2.10;;;;;;;;;;5035821;28;20281;-17
2022/08/12 06:23:28;;;;;;;3.58;1.98;;;;;;;;;;5049758;28;20234;-16
2022/08/12 06:25:56;;;;;;;3.97;2.17;;;;;;;;;;5050295;28;20230;-17
2022/08/12 06:28:26;;;;;;;3.03;2.35;;;;;;;;;;5049917;28;20230;-16
2022/08/12 06:30:54;;;;;;;2.58;2.38;;;;;;;;;;5050050;28;20251;-17
2022/08/12 06:33:43;;;;;;;2.55;2.10;;;;;;;;;;5038736;28;20227;-16
2022/08/12 06:36:30;;;;;;;3.10;2.42;;;;;;;;;;5047131;28;20838;-16
2022/08/12 06:39:00;;;;;;;1.88;1.77;;;;;;;;;;5049697;28;20233;-16
2022/08/12 06:44:33;;;;;;;2.20;2.00;;;;;;;;;;5049370;28;20253;-16
2022/08/12 06:47:01;;;;;;;2.75;2.42;;;;;;;;;;5052262;28;20320;-16
2022/08/12 06:49:35;;;;;;;2.30;2.10;;;;;;;;;;5053188;28;21583;-17
2022/08/12 06:52:03;;;;;;;2.60;2.40;;;;;;;;;;5052783;28;21050;-16
2022/08/12 06:54:32;;;;;;;5.28;2.45;;;;;;;;;;5052499;28;20232;-16
2022/08/12 06:56:59;;;;;;;3.13;2.50;;;;;;;;;;5053566;28;20588;-16
2022/08/12 06:59:34;;;;;;;2.65;2.45;;;;;;;;;;5052914;28;20358;-16
2022/08/12 07:02:03;;;;;;;3.75;2.40;;;;;;;;;;5052809;28;20222;-16
2022/08/12 07:04:37;;;;;;;3.33;2.53;;;;;;;;;;5052892;28;20708;-16
2022/08/12 07:07:06;;;;;;;2.95;2.47;;;;;;;;;;5052447;28;20240;-16
2022/08/12 07:09:33;;;;;;;4.00;2.45;;;;;;;;;;5052778;28;20317;-18
2022/08/12 07:12:21;;;;;;;2.53;2.33;;;;;;;;;;5052718;28;20230;-16
2022/08/12 07:14:50;;;;;;;2.42;2.20;;;;;;;;;;5052591;28;20234;-16
2022/08/12 07:17:18;;;;;;;5.78;2.60;;;;;;;;;;5052540;28;20230;-16
2022/08/12 07:19:47;;;;;;;2.80;2.30;;;;;;;;;;5052859;28;20230;-16
2022/08/12 07:22:15;;;;;;;2.17;1.98;;;;;;;;;;5051916;28;21023;-16
2022/08/12 07:24:42;;;;;;;2.88;2.30;;;;;;;;;;5052747;28;20345;-16
2022/08/12 07:27:09;;;;;;;2.38;2.17;;;;;;;;;;5051965;28;20260;-16
2022/08/12 07:29:37;;;;;;;4.35;2.38;;;;;;;;;;5039264;28;20230;-16
2022/08/12 07:32:27;;;;;;;4.30;2.30;;;;;;;;;;5052454;28;20222;-16
2022/08/12 07:34:55;;;;;;;4.25;2.58;;;;;;;;;;5051853;28;20939;-16
2022/08/12 07:37:23;;;;;;;2.60;2.30;;;;;;;;;;5052277;28;20720;-16
2022/08/12 07:39:50;;;;;;;4.13;2.30;;;;;;;;;;5052145;28;20230;-16
2022/08/12 07:42:27;;;;;;;4.18;2.55;;;;;;;;;;5052408;28;21047;-16
2022/08/12 07:44:55;;;;;;;2.17;2.08;;;;;;;;;;5052340;28;21063;-16
2022/08/12 07:47:22;;;;;;;2.42;2.22;;;;;;;;;;5052096;28;20322;-16
2022/08/12 07:49:53;;;;;;;2.53;2.20;;;;;;;;;;5051899;28;20238;-15
2022/08/12 07:52:32;;;;;;;2.85;2.42;;;;;;;;;;5052314;28;20324;-15
2022/08/12 07:54:59;;;;;;;2.42;2.20;;;;;;;;;;5051803;28;20761;-16
2022/08/12 07:57:27;;;;;;;2.58;2.38;;;;;;;;;;5052067;28;20223;-16
2022/08/12 07:59:54;;;;;;;3.63;2.45;;;;;;;;;;5051464;28;20245;-16
2022/08/12 08:02:22;;;;;;;2.55;2.10;;;;;;;;;;5051964;28;20230;-16
2022/08/12 08:04:59;;;;;;;3.22;2.28;;;;;;;;;;5051972;28;20765;-16
2022/08/12 08:07:28;;;;;;;2.88;2.13;;;;;;;;;;5051683;28;20221;-15
2022/08/12 08:09:57;;;;;;;4.90;2.60;;;;;;;;;;5051912;28;20230;-16
2022/08/12 08:15:11;;;;;;;2.75;2.50;;;;;;;;;;5051777;28;20229;-16
2022/08/12 08:17:38;;;;;;;3.03;2.30;;;;;;;;;;5051651;28;20226;-16
2022/08/12 08:20:09;;;;;;;3.15;2.30;;;;;;;;;;5051677;28;20230;-16
2022/08/12 08:22:37;;;;;;;3.13;2.70;;;;;;;;;;5050492;28;20720;-16
2022/08/12 08:25:08;;;;;;;2.92;2.20;;;;;;;;;;5051517;28;20234;-17
2022/08/12 08:27:56;;;;;;;2.40;2.20;;;;;;;;;;5051538;28;20237;-17
2022/08/12 08:30:23;;;;;;;3.17;2.35;;;;;;;;;;5051226;28;20942;-17
2022/08/12 08:32:51;;;;;;;4.10;2.55;;;;;;;;;;5051519;28;21031;-17
2022/08/12 08:35:21;;;;;;;4.35;2.80;;;;;;;;;;5050562;28;21028;-18
2022/08/12 08:37:51;;;;;;;4.60;2.65;;;;;;;;;;5051377;28;20237;-17
2022/08/12 08:43:15;;;;;;;2.75;2.55;;;;;;;;;;5008667;28;20262;-16
2022/08/12 08:45:44;;;;;;;4.13;2.60;;;;;;;;;;5040698;28;20222;-16
2022/08/12 08:48:11;;;;;;;2.70;2.50;;;;;;;;;;5051738;28;20709;-17
2022/08/12 08:50:40;;;;;;;2.88;2.58;;;;;;;;;;5051154;28;20236;-17
2022/08/12 08:53:08;;;;;;;2.38;2.10;;;;;;;;;;5051381;28;20268;-17
2022/08/12 08:55:35;;;;;;;4.90;2.45;;;;;;;;;;5050828;28;20229;-17
2022/08/12 08:58:22;;;;;;;3.35;2.40;;;;;;;;;;5051388;28;20230;-17
2022/08/12 09:00:50;;;;;;;2.60;2.40;;;;;;;;;;5051083;28;20720;-17
2022/08/12 09:03:17;;;;;;;3.50;2.72;;;;;;;;;;5051365;28;20230;-17
2022/08/12 09:06:06;;;;;;;2.95;2.65;;;;;;;;;;5050870;28;20237;-16
2022/08/12 09:08:34;;;;;;;4.82;2.80;;;;;;;;;;5050345;28;20234;-15
2022/08/12 09:13:26;;;;;;;2.63;2.42;;;;;;;;;;5051158;28;20241;-16
2022/08/12 09:14:09;;;;;;;5.05;2.58;;;;;;;;;;5051052;28;20241;-16
2022/08/12 09:16:56;;;;;;;3.03;2.47;;;;;;;;;;5050484;28;20237;-17
2022/08/12 09:19:25;;;;;;;4.00;2.42;;;;;;;;;;5050324;28;20227;-16
2022/08/12 09:21:56;;;;;;;2.88;2.58;;;;;;;;;;5050270;28;20286;-16
2022/08/12 09:24:26;;;;;;;2.60;2.40;;;;;;;;;;5050695;28;20292;-16
2022/08/12 09:26:56;;;;;;;3.28;2.85;;;;;;;;;;5050758;28;20226;-16
2022/08/12 09:29:25;;;;;;;5.78;2.90;;;;;;;;;;5050081;28;20237;-17
2022/08/12 09:32:12;;;;;;;4.47;2.80;;;;;;;;;;5051132;28;20229;-16
2022/08/12 09:35:00;;;;;;;2.60;2.40;;;;;;;;;;5050858;28;20242;-16
2022/08/12 09:37:29;;;;;;;4.00;2.80;;;;;;;;;;5050626;28;20238;-16
2022/08/12 09:40:17;;;;;;;3.25;2.35;;;;;;;;;;5050525;28;20230;-16
2022/08/12 09:45:52;;;;;;;6.93;2.83;;;;;;;;;;5047903;28;20234;-16
2022/08/12 09:48:39;;;;;;;2.88;2.50;;;;;;;;;;5050863;28;20333;-16
2022/08/12 09:51:23;;;;;;;5.00;2.60;;;;;;;;;;5049934;28;20237;-16
2022/08/12 09:54:05;;;;;;;2.72;2.47;;;;;;;;;;5050435;28;20230;-16
2022/08/12 09:56:53;;;;;;;3.40;3.10;;;;;;;;;;5050466;28;20242;-16
2022/08/12 09:59:30;;;;;;;3.85;2.70;;;;;;;;;;5050670;28;21044;-16
2022/08/12 10:02:17;;;;;;;3.05;2.83;;;;;;;;;;5050169;28;20261;-16
2022/08/12 10:05:05;;;;;;;3.15;2.63;;;;;;;;;;5050498;28;20233;-16
2022/08/12 10:07:40;;;;;;;3.47;2.78;;;;;;;;;;5050119;28;20234;-16
2022/08/12 10:10:10;;;;;;;3.30;2.75;;;;;;;;;;5050121;28;20233;-16
2022/08/12 10:15:56;;;;;;;3.70;2.55;;;;;;;;;;5038237;28;20226;-16
2022/08/12 10:18:31;;;;;;;3.67;3.00;;;;;;;;;;5049993;28;20261;-16
2022/08/12 10:21:04;;;;;;;3.17;2.83;;;;;;;;;;5051441;28;20234;-16
2022/08/12 10:23:33;;;;;;;2.78;2.58;;;;;;;;;;5053115;28;20336;-17
2022/08/12 10:32:15;;;;;;;4.80;2.55;;;;;;;;;;5050463;28;20222;-17
2022/08/12 10:35:02;;;;;;;4.30;3.20;;;;;;;;;;5053132;28;20238;-16
2022/08/12 10:37:30;;;;;;;3.83;3.05;;;;;;;;;;5053207;28;20234;-16
2022/08/12 10:40:21;;;;;;;3.10;2.70;;;;;;;;;;5053389;28;20285;-16
2022/08/12 10:45:47;;;;;;;4.32;3.00;;;;;;;;;;5053418;28;20236;-16
2022/08/12 10:48:16;;;;;;;3.88;2.88;;;;;;;;;;5053150;28;20297;-16
2022/08/12 10:50:52;;;;;;;4.70;2.97;;;;;;;;;;5053012;28;20236;-16
2022/08/12 10:53:30;;;;;;;5.07;3.03;;;;;;;;;;5052790;28;20229;-16
2022/08/12 10:56:13;;;;;;;3.97;3.25;;;;;;;;;;5052516;28;20242;-16
2022/08/12 10:58:41;;;;;;;4.25;2.67;;;;;;;;;;5053077;28;20244;-16
2022/08/12 11:01:13;;;;;;;4.78;2.97;;;;;;;;;;5052727;28;20231;-16
2022/08/12 11:04:01;;;;;;;3.30;3.00;;;;;;;;;;5039055;28;20234;-16
2022/08/12 11:06:49;;;;;;;5.50;3.28;;;;;;;;;;5052812;28;20234;-15
2022/08/12 11:09:37;;;;;;;5.82;3.38;;;;;;;;;;5043587;28;20241;-15
2022/08/12 11:12:24;;;;;;;4.95;2.78;;;;;;;;;;5052749;28;20234;-16
2022/08/12 11:15:13;;;;;;;6.65;3.08;;;;;;;;;;5052707;28;20241;-17
2022/08/12 11:17:48;;;;;;;3.85;3.47;;;;;;;;;;5052227;28;20241;-17
2022/08/12 11:20:21;;;;;;;5.50;2.72;;;;;;;;;;5052174;28;20230;-17
2022/08/12 11:22:57;;;;;;;3.95;3.17;;;;;;;;;;5052092;28;20349;-17
2022/08/12 11:25:25;;;;;;;4.32;2.95;;;;;;;;;;5052376;28;21137;-17
2022/08/12 11:28:12;;;;;;;2.88;2.60;;;;;;;;;;5051899;28;20226;-17
2022/08/12 11:30:42;;;;;;;3.78;2.75;;;;;;;;;;5052722;28;20227;-17
2022/08/12 11:33:09;;;;;;;5.25;2.80;;;;;;;;;;5052575;28;21093;-17
2022/08/12 11:35:50;;;;;;;2.92;2.70;;;;;;;;;;5052436;28;20603;-17
2022/08/12 11:38:23;;;;;;;4.57;2.60;;;;;;;;;;5052076;28;20257;-17
2022/08/12 11:40:51;;;;;;;3.80;2.60;;;;;;;;;;5051918;28;20814;-17
2022/08/12 11:43:18;;;;;;;3.42;3.10;;;;;;;;;;5052360;28;20978;-17
2022/08/12 11:45:48;;;;;;;3.55;3.13;;;;;;;;;;5052159;28;21062;-17
2022/08/12 11:48:19;;;;;;;4.15;3.03;;;;;;;;;;5052102;28;20234;-17
2022/08/12 11:50:53;;;;;;;2.92;2.72;;;;;;;;;;5052262;28;20234;-17
2022/08/12 11:53:21;;;;;;;4.78;3.20;;;;;;;;;;5052388;28;20709;-17
2022/08/12 11:56:08;;;;;;;3.60;2.90;;;;;;;;;;5052375;28;20238;-17
2022/08/12 11:58:37;;;;;;;3.15;2.85;;;;;;;;;;5051976;28;21180;-17
2022/08/12 12:01:26;;;;;;;3.28;2.97;;;;;;;;;;5051790;28;20984;-16
2022/08/12 12:04:13;;;;;;;4.28;3.33;;;;;;;;;;5051932;28;20767;-16
2022/08/12 12:06:55;;;;;;;3.05;2.85;;;;;;;;;;5051818;28;20242;-16
2022/08/12 12:09:34;;;;;;;4.78;2.97;;;;;;;;;;5051795;28;20240;-16
2022/08/12 12:12:19;;;;;;;3.53;3.22;;;;;;;;;;5051849;28;20288;-16
2022/08/12 12:14:48;;;;;;;3.17;2.95;;;;;;;;;;5051103;28;20315;-16
2022/08/12 12:17:23;;;;;;;4.43;3.22;;;;;;;;;;5051945;28;20801;-17
2022/08/12 12:19:51;;;;;;;6.00;3.30;;;;;;;;;;5051513;28;20234;-16
2022/08/12 12:22:19;;;;;;;3.00;2.80;;;;;;;;;;5051067;28;20248;-16
2022/08/12 12:24:57;;;;;;;3.28;2.60;;;;;;;;;;5051171;28;20291;-16
2022/08/12 12:27:24;;;;;;;3.58;3.00;;;;;;;;;;5051496;28;20234;-16
2022/08/12 12:30:12;;;;;;;3.53;2.80;;;;;;;;;;5051156;28;20226;-16
2022/08/12 12:32:57;;;;;;;3.40;3.03;;;;;;;;;;5051433;28;20230;-18
2022/08/12 12:35:24;;;;;;;4.53;2.97;;;;;;;;;;5051275;28;20230;-17
2022/08/12 12:38:12;;;;;;;6.47;3.33;;;;;;;;;;5051284;28;20242;-18
2022/08/12 12:40:40;;;;;;;3.20;2.70;;;;;;;;;;5051769;28;20231;-18
2022/08/12 12:43:10;;;;;;;4.13;2.70;;;;;;;;;;5050065;28;20308;-17
2022/08/12 12:45:39;;;;;;;2.80;2.60;;;;;;;;;;5051335;28;20233;-17
2022/08/12 12:48:14;;;;;;;6.18;2.97;;;;;;;;;;5050956;28;21015;-17
2022/08/12 12:50:41;;;;;;;3.33;2.60;;;;;;;;;;5051447;28;20268;-17
2022/08/12 12:53:21;;;;;;;4.22;2.97;;;;;;;;;;5051041;28;20226;-17
2022/08/12 12:56:14;;;;;;;3.28;2.92;;;;;;;;;;5050950;28;20575;-17
2022/08/12 12:58:42;;;;;;;3.63;2.47;;;;;;;;;;5050747;28;20253;-17
2022/08/12 13:01:10;;;;;;;3.33;3.03;;;;;;;;;;5050983;28;20678;-17
2022/08/12 13:03:57;;;;;;;5.53;2.78;;;;;;;;;;5051056;28;20244;-17
2022/08/12 13:06:29;;;;;;;8.57;3.30;;;;;;;;;;5051240;28;20233;-17
2022/08/12 13:08:58;;;;;;;5.07;3.50;;;;;;;;;;5050625;28;20292;-17
2022/08/12 13:11:29;;;;;;;3.58;2.55;;;;;;;;;;5050997;28;20234;-17
2022/08/12 13:14:08;;;;;;;2.58;2.38;;;;;;;;;;5050706;28;20313;-17
2022/08/12 13:16:54;;;;;;;3.65;2.78;;;;;;;;;;5050739;28;20357;-17
2022/08/12 13:19:24;;;;;;;4.00;2.90;;;;;;;;;;5050324;28;20237;-17
2022/08/12 13:22:18;;;;;;;4.32;2.60;;;;;;;;;;5050138;28;20269;-17
2022/08/12 13:24:49;;;;;;;3.22;2.67;;;;;;;;;;5050574;28;20241;-17
2022/08/12 13:27:22;;;;;;;3.30;2.83;;;;;;;;;;5050991;28;20265;-17
2022/08/12 13:30:02;;;;;;;3.38;2.78;;;;;;;;;;5050489;28;20610;-16
2022/08/12 13:32:33;;;;;;;4.63;2.80;;;;;;;;;;5050468;28;20237;-17
2022/08/12 13:35:02;;;;;;;4.40;2.95;;;;;;;;;;5050881;28;20237;-17
2022/08/12 13:37:53;;;;;;;4.90;2.90;;;;;;;;;;5050727;28;20230;-17
2022/08/12 13:40:21;;;;;;;3.47;2.65;;;;;;;;;;5050565;28;20271;-17
2022/08/12 13:42:52;;;;;;;4.72;2.88;;;;;;;;;;5049937;28;20222;-17
2022/08/12 13:45:19;;;;;;;4.35;2.80;;;;;;;;;;5050384;28;20325;-17
2022/08/12 13:47:51;;;;;;;3.42;2.47;;;;;;;;;;5050339;28;20325;-17
2022/08/12 13:50:21;;;;;;;2.85;2.40;;;;;;;;;;5050780;28;20326;-17
2022/08/12 13:52:53;;;;;;;3.75;2.97;;;;;;;;;;5050326;28;20234;-17
2022/08/12 13:55:24;;;;;;;3.40;2.80;;;;;;;;;;5052333;28;20229;-17
2022/08/12 13:57:57;;;;;;;3.95;2.70;;;;;;;;;;5054066;28;20234;-17
2022/08/12 14:00:26;;;;;;;2.60;2.40;;;;;;;;;;5053637;28;20269;-17
2022/08/12 14:03:05;;;;;;;5.55;2.67;;;;;;;;;;5053863;28;20325;-17
2022/08/12 14:05:38;;;;;;;4.10;2.50;;;;;;;;;;5053714;28;20236;-17
2022/08/12 14:08:06;;;;;;;3.78;2.70;;;;;;;;;;5053847;28;20230;-17
2022/08/12 14:10:36;;;;;;;3.78;2.83;;;;;;;;;;5053677;28;20303;-17
2022/08/12 14:13:04;;;;;;;3.00;2.30;;;;;;;;;;5053899;28;21155;-16
2022/08/12 14:15:37;;;;;;;2.45;2.30;;;;;;;;;;5052756;28;20230;-16
2022/08/12 14:18:05;;;;;;;3.35;2.22;;;;;;;;;;5053578;28;20234;-17
2022/08/12 14:20:33;;;;;;;5.43;3.00;;;;;;;;;;5053613;28;20241;-16
2022/08/12 14:23:02;;;;;;;3.70;2.55;;;;;;;;;;5052808;28;20257;-16
2022/08/12 14:25:50;;;;;;;3.08;2.40;;;;;;;;;;5053272;28;20238;-16
2022/08/12 14:28:18;;;;;;;3.03;2.72;;;;;;;;;;5053555;28;20996;-16
2022/08/12 14:30:46;;;;;;;5.05;2.88;;;;;;;;;;5053420;28;20233;-17
2022/08/12 14:33:26;;;;;;;3.42;2.45;;;;;;;;;;5040315;28;20238;-16
2022/08/12 14:36:09;;;;;;;2.88;2.22;;;;;;;;;;5052576;28;21554;-17
2022/08/12 14:38:40;;;;;;;2.60;2.40;;;;;;;;;;5040490;28;20233;-16
2022/08/12 14:41:11;;;;;;;3.20;2.40;;;;;;;;;;5053258;28;20234;-16
2022/08/12 14:43:41;;;;;;;4.43;2.78;;;;;;;;;;5039929;28;20736;-17
2022/08/12 14:46:28;;;;;;;2.63;2.30;;;;;;;;;;5053012;28;20691;-17
2022/08/12 14:48:55;;;;;;;4.00;2.53;;;;;;;;;;5052632;28;20706;-16
2022/08/12 14:51:24;;;;;;;3.90;2.60;;;;;;;;;;5039013;28;20268;-16
2022/08/12 14:54:13;;;;;;;3.17;2.67;;;;;;;;;;5042341;28;20237;-16
2022/08/12 14:57:04;;;;;;;2.60;2.40;;;;;;;;;;5052995;28;20237;-17
2022/08/12 15:02:36;;;;;;;4.38;2.70;;;;;;;;;;5041501;28;21024;-16
2022/08/12 15:05:05;;;;;;;2.25;2.10;;;;;;;;;;5052544;28;20257;-16
2022/08/12 15:07:36;;;;;;;2.53;2.33;;;;;;;;;;5052115;28;20242;-16
2022/08/12 15:10:19;;;;;;;3.22;2.20;;;;;;;;;;5052739;28;20266;-16
2022/08/12 15:12:58;;;;;;;2.83;2.25;;;;;;;;;;5052644;28;20229;-16
2022/08/12 15:15:26;;;;;;;2.33;2.13;;;;;;;;;;5052328;28;20245;-17
2022/08/12 15:18:00;;;;;;;4.50;2.38;;;;;;;;;;5052646;28;20238;-17
2022/08/12 15:20:28;;;;;;;2.42;2.20;;;;;;;;;;5052449;28;20230;-17
2022/08/12 15:23:03;;;;;;;4.25;2.58;;;;;;;;;;5052163;28;20265;-17
2022/08/12 15:25:46;;;;;;;4.80;2.10;;;;;;;;;;5052144;28;20229;-17
2022/08/12 15:28:16;;;;;;;8.40;2.40;;;;;;;;;;5052612;28;20640;-16
2022/08/12 15:30:48;;;;;;;3.63;2.35;;;;;;;;;;5052313;28;20230;-16
2022/08/12 15:33:15;;;;;;;3.92;2.17;;;;;;;;;;5052099;28;20230;-17
2022/08/12 15:35:47;;;;;;;4.25;2.00;;;;;;;;;;5052594;28;20264;-16
2022/08/12 15:38:20;;;;;;;3.13;2.13;;;;;;;;;;5052143;28;20321;-16
2022/08/12 15:40:51;;;;;;;3.40;2.03;;;;;;;;;;5052100;28;20729;-16
2022/08/12 15:43:18;;;;;;;3.95;1.92;;;;;;;;;;5052049;28;20267;-17
2022/08/12 15:46:08;;;;;;;2.28;2.08;;;;;;;;;;5052370;28;20241;-16
2022/08/12 15:48:43;;;;;;;2.35;2.00;;;;;;;;;;5038128;28;21048;-16
2022/08/12 15:51:15;;;;;;;5.43;2.08;;;;;;;;;;5052316;28;20248;-16
2022/08/12 15:56:30;;;;;;;3.55;2.25;;;;;;;;;;5051923;28;20619;-17
2022/08/12 15:58:58;;;;;;;2.97;2.20;;;;;;;;;;5038290;28;20705;-16
2022/08/12 16:01:28;;;;;;;3.22;2.28;;;;;;;;;;5051637;28;20970;-16
2022/08/12 16:04:02;;;;;;;2.17;1.90;;;;;;;;;;5038556;28;20241;-16
2022/08/12 16:06:31;;;;;;;3.50;2.08;;;;;;;;;;5051575;28;20238;-16
2022/08/12 16:09:22;;;;;;;2.45;2.17;;;;;;;;;;5051551;28;20245;-17
2022/08/12 16:12:11;;;;;;;2.20;1.90;;;;;;;;;;5051993;28;20234;-17
2022/08/12 16:14:41;;;;;;;3.35;2.17;;;;;;;;;;5051778;28;20237;-16
2022/08/12 16:17:09;;;;;;;2.35;2.15;;;;;;;;;;5051038;28;20238;-16
2022/08/12 16:19:42;;;;;;;5.53;2.08;;;;;;;;;;5051451;28;20238;-16
2022/08/12 16:22:29;;;;;;;4.60;2.13;;;;;;;;;;5051338;28;20269;-16
2022/08/12 16:24:56;;;;;;;3.33;1.90;;;;;;;;;;5051929;28;20226;-16
2022/08/12 16:27:28;;;;;;;2.53;2.08;;;;;;;;;;5051749;28;20230;-17
2022/08/12 16:29:57;;;;;;;2.03;1.70;;;;;;;;;;5051391;28;20324;-17
2022/08/12 16:32:26;;;;;;;3.60;2.17;;;;;;;;;;5051185;28;20241;-16
2022/08/12 16:34:58;;;;;;;2.35;2.03;;;;;;;;;;5051328;28;20317;-16
2022/08/12 16:37:26;;;;;;;2.05;1.83;;;;;;;;;;5051164;28;20234;-17
2022/08/12 16:40:13;;;;;;;3.15;2.00;;;;;;;;;;5037694;28;20704;-17
2022/08/12 16:42:43;;;;;;;2.65;2.17;;;;;;;;;;5051181;28;20277;-17
2022/08/12 16:45:26;;;;;;;3.58;2.03;;;;;;;;;;5051150;28;20237;-16
2022/08/12 16:48:13;;;;;;;2.38;2.17;;;;;;;;;;5050803;28;20230;-16
2022/08/12 16:51:04;;;;;;;4.15;2.00;;;;;;;;;;5051220;28;20760;-17
2022/08/12 16:53:39;;;;;;;1.98;1.83;;;;;;;;;;5051130;28;20257;-17
2022/08/12 16:56:14;;;;;;;2.70;2.10;;;;;;;;;;5051287;28;20229;-16
2022/08/12 16:58:45;;;;;;;3.15;2.20;;;;;;;;;;5051211;28;20284;-16
2022/08/12 17:01:14;;;;;;;4.95;2.28;;;;;;;;;;5050618;28;20249;-16
2022/08/12 17:03:42;;;;;;;2.03;1.90;;;;;;;;;;5050774;28;20233;-16
2022/08/12 17:06:18;;;;;;;2.22;1.75;;;;;;;;;;5051183;28;20240;-16
2022/08/12 17:08:48;;;;;;;3.38;1.92;;;;;;;;;;5051068;28;21055;-17
2022/08/12 17:11:22;;;;;;;2.28;2.08;;;;;;;;;;5050521;28;20284;-16
2022/08/12 17:13:52;;;;;;;3.88;2.00;;;;;;;;;;5051080;28;20228;-16
2022/08/12 17:16:20;;;;;;;3.92;2.13;;;;;;;;;;5051166;28;20226;-17
2022/08/12 17:18:50;;;;;;;3.05;1.92;;;;;;;;;;5050803;28;20238;-17
2022/08/12 17:21:27;;;;;;;5.57;2.20;;;;;;;;;;5049887;28;20237;-16